sensor_id;sensor_type;location;lat;lon;timestamp;pressure;altitude;pressure_sealevel;temperature;humidity
80180;BME280;69505;52.134;5.438;2023-11-18T00:01:41;102596.03;;;3.08;100.00
80180;BME280;69505;52.134;5.438;2023-11-18T00:04:09;102592.53;;;3.08;100.00
80180;BME280;69505;52.134;5.438;2023-11-18T00:06:42;102591.72;;;3.04;100.00
80180;BME280;69505;52.134;5.438;2023-11-18T00:09:13;102593.56;;;2.99;100.00
80180;BME280;69505;52.134;5.438;2023-11-18T00:11:42;102590.09;;;2.97;100.00
80180;BME280;69505;52.134;5.438;2023-11-18T00:14:09;102595.28;;;3.00;100.00
80180;BME280;69505;52.134;5.438;2023-11-18T00:16:40;102592.63;;;3.01;100.00
80180;BME280;69505;52.134;5.438;2023-11-18T00:19:06;102594.31;;;3.07;100.00
80180;BME280;69505;52.134;5.438;2023-11-18T00:21:35;102596.09;;;3.05;100.00
80180;BME280;69505;52.134;5.438;2023-11-18T00:24:03;102601.38;;;3.02;100.00
80180;BME280;69505;52.134;5.438;2023-11-18T00:26:30;102598.75;;;3.02;100.00
80180;BME280;69505;52.134;5.438;2023-11-18T00:28:56;102598.78;;;3.00;100.00
80180;BME280;69505;52.134;5.438;2023-11-18T00:31:23;102593.56;;;2.99;100.00
80180;BME280;69505;52.134;5.438;2023-11-18T00:33:51;102589.25;;;2.95;100.00
80180;BME280;69505;52.134;5.438;2023-11-18T00:36:19;102581.41;;;2.92;100.00
80180;BME280;69505;52.134;5.438;2023-11-18T00:38:45;102576.13;;;2.95;100.00
80180;BME280;69505;52.134;5.438;2023-11-18T00:41:13;102584.00;;;2.95;100.00
80180;BME280;69505;52.134;5.438;2023-11-18T00:43:39;102577.00;;;2.94;100.00
80180;BME280;69505;52.134;5.438;2023-11-18T00:46:06;102578.78;;;2.92;100.00
80180;BME280;69505;52.134;5.438;2023-11-18T00:48:32;102579.69;;;2.91;100.00
80180;BME280;69505;52.134;5.438;2023-11-18T00:50:59;102584.13;;;2.85;100.00
80180;BME280;69505;52.134;5.438;2023-11-18T00:53:25;102585.06;;;2.84;100.00
80180;BME280;69505;52.134;5.438;2023-11-18T00:55:52;102586.91;;;2.79;100.00
80180;BME280;69505;52.134;5.438;2023-11-18T00:58:19;102588.78;;;2.71;100.00
80180;BME280;69505;52.134;5.438;2023-11-18T01:00:46;102600.97;;;2.74;100.00
80180;BME280;69505;52.134;5.438;2023-11-18T01:03:13;102605.44;;;2.67;100.00
80180;BME280;69505;52.134;5.438;2023-11-18T01:05:40;102615.03;;;2.67;100.00
80180;BME280;69505;52.134;5.438;2023-11-18T01:08:07;102617.72;;;2.65;100.00
80180;BME280;69505;52.134;5.438;2023-11-18T01:10:33;102610.72;;;2.64;100.00
80180;BME280;69505;52.134;5.438;2023-11-18T01:13:00;102619.41;;;2.68;100.00
80180;BME280;69505;52.134;5.438;2023-11-18T01:15:27;102605.38;;;2.70;100.00
80180;BME280;69505;52.134;5.438;2023-11-18T01:17:53;102611.38;;;2.80;100.00
80180;BME280;69505;52.134;5.438;2023-11-18T01:20:20;102615.63;;;2.85;100.00
80180;BME280;69505;52.134;5.438;2023-11-18T01:22:49;102610.25;;;2.95;100.00
80180;BME280;69505;52.134;5.438;2023-11-18T01:25:16;102618.06;;;2.98;100.00
80180;BME280;69505;52.134;5.438;2023-11-18T01:27:44;102618.97;;;2.97;100.00
80180;BME280;69505;52.134;5.438;2023-11-18T01:30:14;102617.16;;;3.00;100.00
80180;BME280;69505;52.134;5.438;2023-11-18T01:32:41;102615.34;;;3.04;100.00
80180;BME280;69505;52.134;5.438;2023-11-18T01:35:09;102610.06;;;3.07;100.00
80180;BME280;69505;52.134;5.438;2023-11-18T01:37:38;102613.47;;;3.11;100.00
80180;BME280;69505;52.134;5.438;2023-11-18T01:40:06;102614.38;;;3.11;100.00
80180;BME280;69505;52.134;5.438;2023-11-18T01:42:34;102602.13;;;3.10;100.00
80180;BME280;69505;52.134;5.438;2023-11-18T01:45:01;102605.56;;;3.12;100.00
80180;BME280;69505;52.134;5.438;2023-11-18T01:47:33;102600.31;;;3.12;100.00
80180;BME280;69505;52.134;5.438;2023-11-18T01:50:01;102595.94;;;3.13;100.00
80180;BME280;69505;52.134;5.438;2023-11-18T01:52:29;102602.91;;;3.15;100.00
80180;BME280;69505;52.134;5.438;2023-11-18T01:54:58;102599.38;;;3.16;100.00
80180;BME280;69505;52.134;5.438;2023-11-18T01:57:25;102598.44;;;3.20;100.00
80180;BME280;69505;52.134;5.438;2023-11-18T01:59:53;102591.41;;;3.22;100.00
80180;BME280;69505;52.134;5.438;2023-11-18T02:02:21;102597.50;;;3.24;100.00
80180;BME280;69505;52.134;5.438;2023-11-18T02:04:48;102595.72;;;3.27;100.00
80180;BME280;69505;52.134;5.438;2023-11-18T02:07:16;102600.09;;;3.28;100.00
80180;BME280;69505;52.134;5.438;2023-11-18T02:09:43;102593.84;;;3.32;100.00
80180;BME280;69505;52.134;5.438;2023-11-18T02:12:37;102610.41;;;3.37;100.00
80180;BME280;69505;52.134;5.438;2023-11-18T02:15:07;102605.16;;;3.37;100.00
80180;BME280;69505;52.134;5.438;2023-11-18T02:17:41;102605.09;;;3.40;100.00
80180;BME280;69505;52.134;5.438;2023-11-18T02:20:10;102607.72;;;3.40;100.00
80180;BME280;69505;52.134;5.438;2023-11-18T02:22:43;102604.22;;;3.41;100.00
80180;BME280;69505;52.134;5.438;2023-11-18T02:25:15;102609.44;;;3.42;100.00
80180;BME280;69505;52.134;5.438;2023-11-18T02:27:42;102612.94;;;3.41;100.00
80180;BME280;69505;52.134;5.438;2023-11-18T02:30:11;102608.56;;;3.42;100.00
80180;BME280;69505;52.134;5.438;2023-11-18T02:32:48;102606.75;;;3.44;100.00
80180;BME280;69505;52.134;5.438;2023-11-18T02:37:50;102610.22;;;3.46;100.00
80180;BME280;69505;52.134;5.438;2023-11-18T02:40:24;102597.16;;;3.44;100.00
80180;BME280;69505;52.134;5.438;2023-11-18T02:42:53;102601.47;;;3.47;100.00
80180;BME280;69505;52.134;5.438;2023-11-18T02:45:21;102599.72;;;3.46;100.00
80180;BME280;69505;52.134;5.438;2023-11-18T02:47:48;102601.47;;;3.47;100.00
80180;BME280;69505;52.134;5.438;2023-11-18T02:50:15;102597.06;;;3.48;100.00
80180;BME280;69505;52.134;5.438;2023-11-18T02:52:42;102579.53;;;3.50;100.00
80180;BME280;69505;52.134;5.438;2023-11-18T02:55:09;102583.88;;;3.51;100.00
80180;BME280;69505;52.134;5.438;2023-11-18T02:57:36;102580.38;;;3.50;100.00
80180;BME280;69505;52.134;5.438;2023-11-18T03:00:04;102571.63;;;3.51;100.00
80180;BME280;69505;52.134;5.438;2023-11-18T03:02:31;102570.69;;;3.54;100.00
80180;BME280;69505;52.134;5.438;2023-11-18T03:04:58;102568.09;;;3.51;100.00
80180;BME280;69505;52.134;5.438;2023-11-18T03:07:25;102573.38;;;3.51;100.00
80180;BME280;69505;52.134;5.438;2023-11-18T03:09:53;102571.63;;;3.51;100.00
80180;BME280;69505;52.134;5.438;2023-11-18T03:12:23;102566.38;;;3.51;100.00
80180;BME280;69505;52.134;5.438;2023-11-18T03:14:54;102568.09;;;3.52;100.00
80180;BME280;69505;52.134;5.438;2023-11-18T03:17:21;102572.56;;;3.49;100.00
80180;BME280;69505;52.134;5.438;2023-11-18T03:19:48;102569.94;;;3.47;100.00
80180;BME280;69505;52.134;5.438;2023-11-18T03:22:17;102568.16;;;3.49;100.00
80180;BME280;69505;52.134;5.438;2023-11-18T03:24:43;102565.53;;;3.49;100.00
80180;BME280;69505;52.134;5.438;2023-11-18T03:27:10;102554.25;;;3.44;100.00
80180;BME280;69505;52.134;5.438;2023-11-18T03:29:36;102555.03;;;3.49;100.00
80180;BME280;69505;52.134;5.438;2023-11-18T03:32:03;102548.88;;;3.50;100.00
80180;BME280;69505;52.134;5.438;2023-11-18T03:34:32;102555.88;;;3.51;100.00
80180;BME280;69505;52.134;5.438;2023-11-18T03:36:59;102558.44;;;3.53;100.00
80180;BME280;69505;52.134;5.438;2023-11-18T03:39:25;102546.13;;;3.55;100.00
80180;BME280;69505;52.134;5.438;2023-11-18T03:41:54;102541.72;;;3.57;100.00
80180;BME280;69505;52.134;5.438;2023-11-18T03:44:23;102539.91;;;3.60;100.00
80180;BME280;69505;52.134;5.438;2023-11-18T03:46:52;102537.25;;;3.62;100.00
80180;BME280;69505;52.134;5.438;2023-11-18T03:49:19;102528.47;;;3.63;100.00
80180;BME280;69505;52.134;5.438;2023-11-18T03:51:47;102526.69;;;3.65;100.00
80180;BME280;69505;52.134;5.438;2023-11-18T03:54:14;102525.78;;;3.68;100.00
80180;BME280;69505;52.134;5.438;2023-11-18T03:56:40;102521.28;;;3.73;100.00
80180;BME280;69505;52.134;5.438;2023-11-18T03:59:07;102507.28;;;3.72;100.00
80180;BME280;69505;52.134;5.438;2023-11-18T04:01:33;102499.34;;;3.74;100.00
80180;BME280;69505;52.134;5.438;2023-11-18T04:04:00;102499.28;;;3.77;100.00
80180;BME280;69505;52.134;5.438;2023-11-18T04:06:27;102486.06;;;3.80;100.00
80180;BME280;69505;52.134;5.438;2023-11-18T04:08:54;102481.69;;;3.80;100.00
80180;BME280;69505;52.134;5.438;2023-11-18T04:11:21;102466.78;;;3.81;100.00
80180;BME280;69505;52.134;5.438;2023-11-18T04:13:47;102467.72;;;3.78;100.00
80180;BME280;69505;52.134;5.438;2023-11-18T04:16:15;102487.00;;;3.77;100.00
80180;BME280;69505;52.134;5.438;2023-11-18T04:18:43;102492.25;;;3.79;100.00
80180;BME280;69505;52.134;5.438;2023-11-18T04:21:12;102492.25;;;3.79;100.00
80180;BME280;69505;52.134;5.438;2023-11-18T04:23:42;102490.47;;;3.79;100.00
80180;BME280;69505;52.134;5.438;2023-11-18T04:26:08;102476.38;;;3.82;100.00
80180;BME280;69505;52.134;5.438;2023-11-18T04:28:35;102460.72;;;3.79;100.00
80180;BME280;69505;52.134;5.438;2023-11-18T04:31:03;102451.78;;;3.86;100.00
80180;BME280;69505;52.134;5.438;2023-11-18T04:33:32;102463.94;;;3.90;100.00
80180;BME280;69505;52.134;5.438;2023-11-18T04:35:59;102452.56;;;3.91;100.00
80180;BME280;69505;52.134;5.438;2023-11-18T04:38:26;102454.22;;;3.94;100.00
80180;BME280;69505;52.134;5.438;2023-11-18T04:40:53;102439.31;;;3.94;100.00
80180;BME280;69505;52.134;5.438;2023-11-18T04:43:21;102447.09;;;3.99;100.00
80180;BME280;69505;52.134;5.438;2023-11-18T04:46:05;102446.19;;;4.01;100.00
80180;BME280;69505;52.134;5.438;2023-11-18T04:48:32;102438.25;;;4.03;100.00
80180;BME280;69505;52.134;5.438;2023-11-18T04:51:00;102434.72;;;4.04;100.00
80180;BME280;69505;52.134;5.438;2023-11-18T04:53:27;102430.31;;;4.04;100.00
80180;BME280;69505;52.134;5.438;2023-11-18T04:55:53;102424.19;;;4.05;100.00
80180;BME280;69505;52.134;5.438;2023-11-18T04:58:20;102429.34;;;4.09;100.00
80180;BME280;69505;52.134;5.438;2023-11-18T05:00:47;102422.31;;;4.09;100.00
80180;BME280;69505;52.134;5.438;2023-11-18T05:03:16;102431.97;;;4.09;100.00
80180;BME280;69505;52.134;5.438;2023-11-18T05:05:42;102433.72;;;4.10;100.00
80180;BME280;69505;52.134;5.438;2023-11-18T05:08:19;102438.91;;;4.13;100.00
80180;BME280;69505;52.134;5.438;2023-11-18T05:10:47;102430.13;;;4.14;100.00
80180;BME280;69505;52.134;5.438;2023-11-18T05:13:14;102438.88;;;4.14;100.00
80180;BME280;69505;52.134;5.438;2023-11-18T05:15:46;102439.72;;;4.15;100.00
80180;BME280;69505;52.134;5.438;2023-11-18T05:18:14;102424.78;;;4.17;100.00
80180;BME280;69505;52.134;5.438;2023-11-18T05:20:43;102425.63;;;4.17;100.00
80180;BME280;69505;52.134;5.438;2023-11-18T05:23:10;102419.53;;;4.15;100.00
80180;BME280;69505;52.134;5.438;2023-11-18T05:25:42;102410.72;;;4.18;100.00
80180;BME280;69505;52.134;5.438;2023-11-18T05:28:09;102414.16;;;4.20;100.00
80180;BME280;69505;52.134;5.438;2023-11-18T05:30:38;102400.97;;;4.23;100.00
80180;BME280;69505;52.134;5.438;2023-11-18T05:33:05;102408.84;;;4.23;100.00
80180;BME280;69505;52.134;5.438;2023-11-18T05:35:33;102408.84;;;4.23;100.00
80180;BME280;69505;52.134;5.438;2023-11-18T05:37:59;102394.06;;;4.19;100.00
80180;BME280;69505;52.134;5.438;2023-11-18T05:40:26;102410.50;;;4.27;100.00
80180;BME280;69505;52.134;5.438;2023-11-18T05:42:55;102413.16;;;4.25;100.00
80180;BME280;69505;52.134;5.438;2023-11-18T05:45:24;102410.50;;;4.27;100.00
80180;BME280;69505;52.134;5.438;2023-11-18T05:48:10;102406.09;;;4.27;100.00
80180;BME280;69505;52.134;5.438;2023-11-18T05:50:37;102398.19;;;4.29;100.00
80180;BME280;69505;52.134;5.438;2023-11-18T05:53:04;102401.63;;;4.31;100.00
80180;BME280;69505;52.134;5.438;2023-11-18T05:55:30;102396.41;;;4.30;100.00
80180;BME280;69505;52.134;5.438;2023-11-18T05:57:57;102387.63;;;4.31;100.00
80180;BME280;69505;52.134;5.438;2023-11-18T06:00:23;102380.50;;;4.34;100.00
80180;BME280;69505;52.134;5.438;2023-11-18T06:03:01;102377.97;;;4.31;100.00
80180;BME280;69505;52.134;5.438;2023-11-18T06:05:28;102377.03;;;4.32;100.00
80180;BME280;69505;52.134;5.438;2023-11-18T06:07:55;102375.34;;;4.31;100.00
80180;BME280;69505;52.134;5.438;2023-11-18T06:10:25;102383.19;;;4.33;100.00
80180;BME280;69505;52.134;5.438;2023-11-18T06:12:52;102379.69;;;4.32;100.00
80180;BME280;69505;52.134;5.438;2023-11-18T06:15:19;102369.13;;;4.34;100.00
80180;BME280;69505;52.134;5.438;2023-11-18T06:17:47;102374.34;;;4.35;100.00
80180;BME280;69505;52.134;5.438;2023-11-18T06:20:14;102366.47;;;4.35;100.00
80180;BME280;69505;52.134;5.438;2023-11-18T06:22:42;102364.72;;;4.34;100.00
80180;BME280;69505;52.134;5.438;2023-11-18T06:25:09;102367.34;;;4.34;100.00
80180;BME280;69505;52.134;5.438;2023-11-18T06:27:36;102372.56;;;4.36;100.00
80180;BME280;69505;52.134;5.438;2023-11-18T06:30:02;102368.19;;;4.36;100.00
80180;BME280;69505;52.134;5.438;2023-11-18T06:32:29;102369.06;;;4.37;100.00
80180;BME280;69505;52.134;5.438;2023-11-18T06:34:57;102358.47;;;4.38;100.00
80180;BME280;69505;52.134;5.438;2023-11-18T06:37:24;102357.59;;;4.39;100.00
80180;BME280;69505;52.134;5.438;2023-11-18T06:39:51;102363.66;;;4.41;100.00
80180;BME280;69505;52.134;5.438;2023-11-18T06:42:18;102365.38;;;4.42;100.00
80180;BME280;69505;52.134;5.438;2023-11-18T06:44:45;102359.28;;;4.42;100.00
80180;BME280;69505;52.134;5.438;2023-11-18T06:47:12;102359.31;;;4.40;100.00
80180;BME280;69505;52.134;5.438;2023-11-18T06:49:39;102364.50;;;4.43;100.00
80180;BME280;69505;52.134;5.438;2023-11-18T06:52:07;102367.03;;;4.46;100.00
80180;BME280;69505;52.134;5.438;2023-11-18T06:54:36;102362.59;;;4.48;100.00
80180;BME280;69505;52.134;5.438;2023-11-18T06:57:04;102359.06;;;4.50;100.00
80180;BME280;69505;52.134;5.438;2023-11-18T06:59:30;102371.31;;;4.51;100.00
80180;BME280;69505;52.134;5.438;2023-11-18T07:01:57;102366.91;;;4.51;100.00
80180;BME280;69505;52.134;5.438;2023-11-18T07:04:24;102372.16;;;4.51;100.00
80180;BME280;69505;52.134;5.438;2023-11-18T07:06:51;102364.28;;;4.51;100.00
80180;BME280;69505;52.134;5.438;2023-11-18T07:09:18;102363.38;;;4.52;100.00
80180;BME280;69505;52.134;5.438;2023-11-18T07:11:47;102358.94;;;4.54;100.00
80180;BME280;69505;52.134;5.438;2023-11-18T07:14:15;102355.47;;;4.54;100.00
80180;BME280;69505;52.134;5.438;2023-11-18T07:16:42;102361.53;;;4.56;100.00
80180;BME280;69505;52.134;5.438;2023-11-18T07:19:10;102371.16;;;4.57;100.00
80180;BME280;69505;52.134;5.438;2023-11-18T07:21:43;102367.63;;;4.58;100.00
80180;BME280;69505;52.134;5.438;2023-11-18T07:24:10;102368.47;;;4.58;100.00
80180;BME280;69505;52.134;5.438;2023-11-18T07:26:37;102367.63;;;4.58;100.00
80180;BME280;69505;52.134;5.438;2023-11-18T07:29:04;102378.94;;;4.60;100.00
80180;BME280;69505;52.134;5.438;2023-11-18T07:31:34;102378.09;;;4.59;100.00
80180;BME280;69505;52.134;5.438;2023-11-18T07:34:05;102383.31;;;4.61;100.00
80180;BME280;69505;52.134;5.438;2023-11-18T07:36:32;102384.13;;;4.63;100.00
80180;BME280;69505;52.134;5.438;2023-11-18T07:38:59;102394.69;;;4.61;100.00
80180;BME280;69505;52.134;5.438;2023-11-18T07:41:33;102400.81;;;4.62;100.00
80180;BME280;69505;52.134;5.438;2023-11-18T07:44:00;102394.63;;;4.64;100.00
80180;BME280;69505;52.134;5.438;2023-11-18T07:46:27;102402.53;;;4.64;100.00
80180;BME280;69505;52.134;5.438;2023-11-18T07:48:57;102382.28;;;4.66;100.00
80180;BME280;69505;52.134;5.438;2023-11-18T07:51:24;102376.09;;;4.69;100.00
80180;BME280;69505;52.134;5.438;2023-11-18T07:53:51;102372.53;;;4.70;100.00
80180;BME280;69505;52.134;5.438;2023-11-18T07:56:19;102361.13;;;4.71;100.00
80180;BME280;69505;52.134;5.438;2023-11-18T07:58:48;102358.44;;;4.73;100.00
80180;BME280;69505;52.134;5.438;2023-11-18T08:01:17;102357.53;;;4.74;100.00
80180;BME280;69505;52.134;5.438;2023-11-18T08:03:44;102352.22;;;4.75;100.00
80180;BME280;69505;52.134;5.438;2023-11-18T08:06:11;102348.63;;;4.78;100.00
80180;BME280;69505;52.134;5.438;2023-11-18T08:08:39;102339.78;;;4.80;100.00
80180;BME280;69505;52.134;5.438;2023-11-18T08:11:06;102337.13;;;4.82;100.00
80180;BME280;69505;52.134;5.438;2023-11-18T08:13:33;102335.28;;;4.85;100.00
80180;BME280;69505;52.134;5.438;2023-11-18T08:16:00;102334.38;;;4.85;100.00
80180;BME280;69505;52.134;5.438;2023-11-18T08:18:27;102329.09;;;4.86;100.00
80180;BME280;69505;52.134;5.438;2023-11-18T08:20:57;102330.75;;;4.89;100.00
80180;BME280;69505;52.134;5.438;2023-11-18T08:23:26;102329.84;;;4.92;100.00
80180;BME280;69505;52.134;5.438;2023-11-18T08:25:55;102319.19;;;4.95;100.00
80180;BME280;69505;52.134;5.438;2023-11-18T08:28:22;102325.31;;;4.95;100.00
80180;BME280;69505;52.134;5.438;2023-11-18T08:30:49;102314.72;;;4.98;100.00
80180;BME280;69505;52.134;5.438;2023-11-18T08:33:19;102319.03;;;5.01;100.00
80180;BME280;69505;52.134;5.438;2023-11-18T08:35:46;102311.94;;;5.03;100.00
80180;BME280;69505;52.134;5.438;2023-11-18T08:38:13;102309.28;;;5.04;100.00
80180;BME280;69505;52.134;5.438;2023-11-18T08:40:39;102300.38;;;5.08;100.00
80180;BME280;69505;52.134;5.438;2023-11-18T08:43:06;102295.84;;;5.12;100.00
80180;BME280;69505;52.134;5.438;2023-11-18T08:45:34;102287.84;;;5.17;100.00
80180;BME280;69505;52.134;5.438;2023-11-18T08:48:03;102282.47;;;5.20;100.00
80180;BME280;69505;52.134;5.438;2023-11-18T08:50:36;102291.03;;;5.26;100.00
80180;BME280;69505;52.134;5.438;2023-11-18T08:53:03;102291.75;;;5.32;100.00
80180;BME280;69505;52.134;5.438;2023-11-18T08:55:36;102280.25;;;5.34;100.00
80180;BME280;69505;52.134;5.438;2023-11-18T08:58:11;102281.03;;;5.38;100.00
80180;BME280;69505;52.134;5.438;2023-11-18T09:00:56;102276.47;;;5.43;100.00
80180;BME280;69505;52.134;5.438;2023-11-18T09:03:33;102273.75;;;5.46;100.00
80180;BME280;69505;52.134;5.438;2023-11-18T09:06:05;102281.53;;;5.49;100.00
80180;BME280;69505;52.134;5.438;2023-11-18T09:11:02;102254.19;;;5.53;100.00
80180;BME280;69505;52.134;5.438;2023-11-18T09:13:32;102246.22;;;5.55;100.00
80180;BME280;69505;52.134;5.438;2023-11-18T09:16:03;102246.97;;;5.58;100.00
80180;BME280;69505;52.134;5.438;2023-11-18T09:18:30;102240.88;;;5.56;100.00
80180;BME280;69505;52.134;5.438;2023-11-18T09:21:00;102241.63;;;5.61;100.00
80180;BME280;69505;52.134;5.438;2023-11-18T09:23:29;102233.53;;;5.66;100.00
80180;BME280;69505;52.134;5.438;2023-11-18T09:25:56;102230.88;;;5.67;100.00
80180;BME280;69505;52.134;5.438;2023-11-18T09:28:26;102222.97;;;5.67;100.00
80180;BME280;69505;52.134;5.438;2023-11-18T09:30:57;102222.97;;;5.67;100.00
80180;BME280;69505;52.134;5.438;2023-11-18T09:33:25;102222.03;;;5.68;100.00
80180;BME280;69505;52.134;5.438;2023-11-18T09:35:52;102216.75;;;5.68;100.00
80180;BME280;69505;52.134;5.438;2023-11-18T09:38:31;102211.50;;;5.68;100.00
80180;BME280;69505;52.134;5.438;2023-11-18T09:41:01;102201.78;;;5.69;100.00
80180;BME280;69505;52.134;5.438;2023-11-18T09:43:33;102185.13;;;5.68;100.00
80180;BME280;69505;52.134;5.438;2023-11-18T09:46:09;102174.59;;;5.68;100.00
80180;BME280;69505;52.134;5.438;2023-11-18T09:51:08;102169.44;;;5.65;100.00
80180;BME280;69505;52.134;5.438;2023-11-18T09:53:40;102175.44;;;5.69;100.00
80180;BME280;69505;52.134;5.438;2023-11-18T09:56:10;102171.88;;;5.72;100.00
80180;BME280;69505;52.134;5.438;2023-11-18T09:58:50;102176.16;;;5.74;100.00
80180;BME280;69505;52.134;5.438;2023-11-18T10:01:25;102192.78;;;5.76;100.00
80180;BME280;69505;52.134;5.438;2023-11-18T10:03:55;102173.34;;;5.79;100.00
80180;BME280;69505;52.134;5.438;2023-11-18T10:06:26;102169.81;;;5.80;100.00
80180;BME280;69505;52.134;5.438;2023-11-18T10:08:55;102181.09;;;5.83;100.00
80180;BME280;69505;52.134;5.438;2023-11-18T10:11:21;102182.88;;;5.83;100.00
80180;BME280;69505;52.134;5.438;2023-11-18T10:13:49;102168.00;;;5.82;100.00
80180;BME280;69505;52.134;5.438;2023-11-18T10:16:15;102164.44;;;5.83;100.00
80180;BME280;69505;52.134;5.438;2023-11-18T10:18:44;102160.88;;;5.84;100.00
80180;BME280;69505;52.134;5.438;2023-11-18T10:21:16;102169.59;;;5.86;100.00
80180;BME280;69505;52.134;5.438;2023-11-18T10:24:00;102166.00;;;5.88;100.00
80180;BME280;69505;52.134;5.438;2023-11-18T10:26:27;102167.78;;;5.88;100.00
80180;BME280;69505;52.134;5.438;2023-11-18T10:29:02;102158.03;;;5.90;100.00
80180;BME280;69505;52.134;5.438;2023-11-18T10:31:29;102165.00;;;5.91;100.00
80180;BME280;69505;52.134;5.438;2023-11-18T10:33:56;102171.94;;;5.95;100.00
80180;BME280;69505;52.134;5.438;2023-11-18T10:36:23;102158.69;;;5.97;100.00
80180;BME280;69505;52.134;5.438;2023-11-18T10:38:52;102150.72;;;5.98;100.00
80180;BME280;69505;52.134;5.438;2023-11-18T10:41:23;102131.41;;;5.98;100.00
80180;BME280;69505;52.134;5.438;2023-11-18T10:44:05;102125.22;;;5.99;100.00
80180;BME280;69505;52.134;5.438;2023-11-18T10:46:31;102127.78;;;6.00;100.00
80180;BME280;69505;52.134;5.438;2023-11-18T10:48:58;102109.31;;;6.00;100.00
80180;BME280;69505;52.134;5.438;2023-11-18T10:51:25;102108.41;;;6.01;100.00
80180;BME280;69505;52.134;5.438;2023-11-18T10:53:53;102099.56;;;6.02;100.00
80180;BME280;69505;52.134;5.438;2023-11-18T10:56:26;102111.88;;;6.03;100.00
80180;BME280;69505;52.134;5.438;2023-11-18T10:59:06;102100.28;;;6.07;100.00
80180;BME280;69505;52.134;5.438;2023-11-18T11:01:35;102089.78;;;6.06;100.00
80180;BME280;69505;52.134;5.438;2023-11-18T11:04:10;102086.34;;;6.04;100.00
80180;BME280;69505;52.134;5.438;2023-11-18T11:06:47;102085.25;;;6.09;100.00
80180;BME280;69505;52.134;5.438;2023-11-18T11:11:59;102073.72;;;6.12;100.00
80180;BME280;69505;52.134;5.438;2023-11-18T11:14:33;102090.34;;;6.14;100.00
80180;BME280;69505;52.134;5.438;2023-11-18T11:17:10;102082.50;;;6.13;100.00
80180;BME280;69505;52.134;5.438;2023-11-18T11:19:57;102062.25;;;6.13;100.00
80180;BME280;69505;52.134;5.438;2023-11-18T11:28:43;102004.97;;;6.17;100.00
80180;BME280;69505;52.134;5.438;2023-11-18T11:31:37;101981.97;;;6.20;100.00
80180;BME280;69505;52.134;5.438;2023-11-18T11:34:06;101962.47;;;6.24;100.00
80180;BME280;69505;52.134;5.438;2023-11-18T11:36:41;101951.66;;;6.30;100.00
80180;BME280;69505;52.134;5.438;2023-11-18T11:39:08;101950.53;;;6.36;100.00
80180;BME280;69505;52.134;5.438;2023-11-18T11:41:45;101952.25;;;6.37;100.00
80180;BME280;69505;52.134;5.438;2023-11-18T11:44:13;101952.25;;;6.37;100.00
80180;BME280;69505;52.134;5.438;2023-11-18T11:46:41;101938.28;;;6.35;100.00
80180;BME280;69505;52.134;5.438;2023-11-18T11:49:10;101939.00;;;6.39;100.00
80180;BME280;69505;52.134;5.438;2023-11-18T11:52:01;101950.22;;;6.44;100.00
80180;BME280;69505;52.134;5.438;2023-11-18T11:54:35;101936.19;;;6.43;100.00
80180;BME280;69505;52.134;5.438;2023-11-18T11:57:04;101910.59;;;6.45;100.00
80180;BME280;69505;52.134;5.438;2023-11-18T12:02:13;101885.72;;;6.51;100.00
80180;BME280;69505;52.134;5.438;2023-11-18T12:04:47;101894.34;;;6.55;100.00
80180;BME280;69505;52.134;5.438;2023-11-18T12:07:21;101895.28;;;6.54;100.00
80180;BME280;69505;52.134;5.438;2023-11-18T12:09:49;101870.47;;;6.58;100.00
80180;BME280;69505;52.134;5.438;2023-11-18T12:12:21;101868.69;;;6.58;100.00
80180;BME280;69505;52.134;5.438;2023-11-18T12:14:55;101865.84;;;6.63;100.00
80180;BME280;69505;52.134;5.438;2023-11-18T12:20:41;101863.72;;;6.71;100.00
80180;BME280;69505;52.134;5.438;2023-11-18T12:23:15;101846.81;;;6.75;100.00
80180;BME280;69505;52.134;5.438;2023-11-18T12:25:43;101853.69;;;6.79;100.00
80180;BME280;69505;52.134;5.438;2023-11-18T12:28:11;101843.06;;;6.81;100.00
80180;BME280;69505;52.134;5.438;2023-11-18T12:30:38;101834.25;;;6.80;100.00
80180;BME280;69505;52.134;5.438;2023-11-18T12:33:07;101816.66;;;6.81;100.00
80180;BME280;69505;52.134;5.438;2023-11-18T12:49:15;101786.28;;;6.91;100.00
80180;BME280;69505;52.134;5.438;2023-11-18T12:51:42;101785.38;;;6.90;100.00
80180;BME280;69505;52.134;5.438;2023-11-18T12:54:11;101774.81;;;6.90;100.00
80180;BME280;69505;52.134;5.438;2023-11-18T12:56:42;101744.03;;;6.91;100.00
80180;BME280;69505;52.134;5.438;2023-11-18T12:59:10;101678.84;;;6.91;100.00
80180;BME280;69505;52.134;5.438;2023-11-18T13:01:39;101654.91;;;6.95;100.00
80180;BME280;69505;52.134;5.438;2023-11-18T13:04:08;101647.00;;;6.95;100.00
80180;BME280;69505;52.134;5.438;2023-11-18T13:06:35;101657.66;;;6.93;100.00
80180;BME280;69505;52.134;5.438;2023-11-18T13:09:02;101661.16;;;6.94;100.00
80180;BME280;69505;52.134;5.438;2023-11-18T13:11:33;101673.50;;;6.93;100.00
80180;BME280;69505;52.134;5.438;2023-11-18T13:14:00;101683.97;;;6.95;100.00
80180;BME280;69505;52.134;5.438;2023-11-18T13:16:27;101689.25;;;6.95;100.00
80180;BME280;69505;52.134;5.438;2023-11-18T13:18:54;101678.69;;;6.95;100.00
80180;BME280;69505;52.134;5.438;2023-11-18T13:21:22;101665.28;;;6.99;100.00
80180;BME280;69505;52.134;5.438;2023-11-18T13:23:52;101687.25;;;7.00;100.00
80180;BME280;69505;52.134;5.438;2023-11-18T13:26:19;101679.34;;;7.00;100.00
80180;BME280;69505;52.134;5.438;2023-11-18T13:28:47;101674.91;;;7.00;100.00
80180;BME280;69505;52.134;5.438;2023-11-18T13:31:16;101664.28;;;7.02;100.00
80180;BME280;69505;52.134;5.438;2023-11-18T13:33:44;101659.84;;;7.02;100.00
80180;BME280;69505;52.134;5.438;2023-11-18T13:36:14;101651.06;;;7.02;100.00